Terminal Aerodrome Forecast
Issued by NWS

Home | Current Version | Previous Version | Text Only | Print | Product List | Glossary On
Versions: 1 2 3 4 5 6 7 8 9 10 11 12 13 14 15 16 17 18 19 20 21 22 23 24 25
000
FTUS41 KBUF 201700
TAFIAG
TAF
KIAG 201734Z 2018/2118 22009KT P6SM VCSH SCT035
     FM202000 19007KT P6SM VCTS BKN060CB
     FM210100 VRB03KT P6SM VCSH BKN130
     FM210600 21004KT 5SM BR VCSH OVC090
     FM211000 22004KT 5SM BR VCSH BKN035
     FM211300 23005KT P6SM VCSH BKN030
     FM211500 25006KT P6SM VCSH BKN035=

USA.gov is the U.S. government's official web portal to all federal, state and local government web resources and services.